sensor_id;sensor_type;location;lat;lon;timestamp;temperature;humidity
65692;DHT22;52411;52.716;6.696;2024-01-06T00:01:01;3.60;99.90
65692;DHT22;52411;52.716;6.696;2024-01-06T00:03:26;3.60;99.90
65692;DHT22;52411;52.716;6.696;2024-01-06T00:05:52;3.60;99.90
65692;DHT22;52411;52.716;6.696;2024-01-06T00:08:17;3.60;99.90
65692;DHT22;52411;52.716;6.696;2024-01-06T00:10:43;3.60;99.90
65692;DHT22;52411;52.716;6.696;2024-01-06T00:13:10;3.60;99.90
65692;DHT22;52411;52.716;6.696;2024-01-06T00:15:35;3.60;99.90
65692;DHT22;52411;52.716;6.696;2024-01-06T00:18:01;3.50;99.90
65692;DHT22;52411;52.716;6.696;2024-01-06T00:20:26;3.50;99.90
65692;DHT22;52411;52.716;6.696;2024-01-06T00:22:52;3.50;99.90
65692;DHT22;52411;52.716;6.696;2024-01-06T00:25:17;3.60;99.90
65692;DHT22;52411;52.716;6.696;2024-01-06T00:27:43;3.50;99.90
65692;DHT22;52411;52.716;6.696;2024-01-06T00:30:09;3.50;99.90
65692;DHT22;52411;52.716;6.696;2024-01-06T00:32:34;3.50;99.90
65692;DHT22;52411;52.716;6.696;2024-01-06T00:35:00;3.50;99.90
65692;DHT22;52411;52.716;6.696;2024-01-06T00:37:25;3.40;99.90
65692;DHT22;52411;52.716;6.696;2024-01-06T00:39:51;3.40;99.90
65692;DHT22;52411;52.716;6.696;2024-01-06T00:42:16;3.40;99.90
65692;DHT22;52411;52.716;6.696;2024-01-06T00:44:42;3.40;99.90
65692;DHT22;52411;52.716;6.696;2024-01-06T00:47:08;3.40;99.90
65692;DHT22;52411;52.716;6.696;2024-01-06T00:49:33;3.40;99.90
65692;DHT22;52411;52.716;6.696;2024-01-06T00:52:00;3.40;99.90
65692;DHT22;52411;52.716;6.696;2024-01-06T00:54:25;3.30;99.90
65692;DHT22;52411;52.716;6.696;2024-01-06T00:56:51;3.40;99.90
65692;DHT22;52411;52.716;6.696;2024-01-06T00:59:16;3.40;99.90
65692;DHT22;52411;52.716;6.696;2024-01-06T01:01:42;3.30;99.90
65692;DHT22;52411;52.716;6.696;2024-01-06T01:04:07;3.30;99.90
65692;DHT22;52411;52.716;6.696;2024-01-06T01:06:33;3.20;99.90
65692;DHT22;52411;52.716;6.696;2024-01-06T01:08:58;3.20;99.90
65692;DHT22;52411;52.716;6.696;2024-01-06T01:11:24;3.20;99.90
65692;DHT22;52411;52.716;6.696;2024-01-06T01:13:49;3.20;99.90
65692;DHT22;52411;52.716;6.696;2024-01-06T01:16:15;3.10;99.90
65692;DHT22;52411;52.716;6.696;2024-01-06T01:18:40;3.10;99.90
65692;DHT22;52411;52.716;6.696;2024-01-06T01:21:06;3.10;99.90
65692;DHT22;52411;52.716;6.696;2024-01-06T01:23:31;3.10;99.90
65692;DHT22;52411;52.716;6.696;2024-01-06T01:25:57;3.00;99.90
65692;DHT22;52411;52.716;6.696;2024-01-06T01:28:22;3.00;99.90
65692;DHT22;52411;52.716;6.696;2024-01-06T01:30:48;3.00;99.90
65692;DHT22;52411;52.716;6.696;2024-01-06T01:33:13;3.00;99.90
65692;DHT22;52411;52.716;6.696;2024-01-06T01:35:39;2.90;99.90
65692;DHT22;52411;52.716;6.696;2024-01-06T01:38:04;2.90;99.90
65692;DHT22;52411;52.716;6.696;2024-01-06T01:40:30;3.00;99.90
65692;DHT22;52411;52.716;6.696;2024-01-06T01:42:55;2.90;99.90
65692;DHT22;52411;52.716;6.696;2024-01-06T01:45:21;2.90;99.90
65692;DHT22;52411;52.716;6.696;2024-01-06T01:47:47;2.90;99.90
65692;DHT22;52411;52.716;6.696;2024-01-06T01:50:12;2.90;99.90
65692;DHT22;52411;52.716;6.696;2024-01-06T01:52:41;2.90;99.90
65692;DHT22;52411;52.716;6.696;2024-01-06T01:55:08;2.90;99.90
65692;DHT22;52411;52.716;6.696;2024-01-06T01:57:33;2.80;99.90
65692;DHT22;52411;52.716;6.696;2024-01-06T02:00:00;2.80;99.90
65692;DHT22;52411;52.716;6.696;2024-01-06T02:02:26;2.80;99.90
65692;DHT22;52411;52.716;6.696;2024-01-06T02:04:54;2.70;99.90
65692;DHT22;52411;52.716;6.696;2024-01-06T02:07:20;2.70;99.90
65692;DHT22;52411;52.716;6.696;2024-01-06T02:09:45;2.70;99.90
65692;DHT22;52411;52.716;6.696;2024-01-06T02:12:11;2.60;99.90
65692;DHT22;52411;52.716;6.696;2024-01-06T02:14:36;2.70;99.90
65692;DHT22;52411;52.716;6.696;2024-01-06T02:17:02;2.70;99.90
65692;DHT22;52411;52.716;6.696;2024-01-06T02:19:28;2.70;99.90
65692;DHT22;52411;52.716;6.696;2024-01-06T02:21:53;2.70;99.90
65692;DHT22;52411;52.716;6.696;2024-01-06T02:24:19;2.70;99.90
65692;DHT22;52411;52.716;6.696;2024-01-06T02:26:45;2.70;99.90
65692;DHT22;52411;52.716;6.696;2024-01-06T02:29:11;2.70;99.90
65692;DHT22;52411;52.716;6.696;2024-01-06T02:31:36;2.60;99.90
65692;DHT22;52411;52.716;6.696;2024-01-06T02:34:02;2.70;99.90
65692;DHT22;52411;52.716;6.696;2024-01-06T02:36:28;2.70;99.90
65692;DHT22;52411;52.716;6.696;2024-01-06T02:38:53;2.60;99.90
65692;DHT22;52411;52.716;6.696;2024-01-06T02:41:19;2.60;99.90
65692;DHT22;52411;52.716;6.696;2024-01-06T02:43:44;2.60;99.90
65692;DHT22;52411;52.716;6.696;2024-01-06T02:46:10;2.60;99.90
65692;DHT22;52411;52.716;6.696;2024-01-06T02:48:35;2.60;99.90
65692;DHT22;52411;52.716;6.696;2024-01-06T02:51:01;2.60;99.90
65692;DHT22;52411;52.716;6.696;2024-01-06T02:53:26;2.60;99.90
65692;DHT22;52411;52.716;6.696;2024-01-06T02:55:52;2.50;99.90
65692;DHT22;52411;52.716;6.696;2024-01-06T02:58:17;2.50;99.90
65692;DHT22;52411;52.716;6.696;2024-01-06T03:00:43;2.60;99.90
65692;DHT22;52411;52.716;6.696;2024-01-06T03:03:08;2.60;99.90
65692;DHT22;52411;52.716;6.696;2024-01-06T03:05:35;2.60;99.90
65692;DHT22;52411;52.716;6.696;2024-01-06T03:08:02;2.60;99.90
65692;DHT22;52411;52.716;6.696;2024-01-06T03:10:28;2.50;99.90
65692;DHT22;52411;52.716;6.696;2024-01-06T03:12:53;2.60;99.90
65692;DHT22;52411;52.716;6.696;2024-01-06T03:15:19;2.60;99.90
65692;DHT22;52411;52.716;6.696;2024-01-06T03:17:44;2.60;99.90
65692;DHT22;52411;52.716;6.696;2024-01-06T03:20:10;2.60;99.90
65692;DHT22;52411;52.716;6.696;2024-01-06T03:22:36;2.60;99.90
65692;DHT22;52411;52.716;6.696;2024-01-06T03:25:03;2.60;99.90
65692;DHT22;52411;52.716;6.696;2024-01-06T03:27:29;2.60;99.90
65692;DHT22;52411;52.716;6.696;2024-01-06T03:29:54;2.60;99.90
65692;DHT22;52411;52.716;6.696;2024-01-06T03:32:20;2.60;99.90
65692;DHT22;52411;52.716;6.696;2024-01-06T03:34:46;2.60;99.90
65692;DHT22;52411;52.716;6.696;2024-01-06T03:37:11;2.50;99.90
65692;DHT22;52411;52.716;6.696;2024-01-06T03:39:37;2.40;99.90
65692;DHT22;52411;52.716;6.696;2024-01-06T03:42:02;2.40;99.90
65692;DHT22;52411;52.716;6.696;2024-01-06T03:44:28;2.40;99.90
65692;DHT22;52411;52.716;6.696;2024-01-06T03:46:56;2.40;99.90
65692;DHT22;52411;52.716;6.696;2024-01-06T03:49:23;2.30;99.90
65692;DHT22;52411;52.716;6.696;2024-01-06T03:51:49;2.40;99.90
65692;DHT22;52411;52.716;6.696;2024-01-06T03:54:14;2.40;99.90
65692;DHT22;52411;52.716;6.696;2024-01-06T03:56:40;2.40;99.90
65692;DHT22;52411;52.716;6.696;2024-01-06T03:59:06;2.40;99.90
65692;DHT22;52411;52.716;6.696;2024-01-06T04:01:31;2.40;99.90
65692;DHT22;52411;52.716;6.696;2024-01-06T04:04:01;2.40;99.90
65692;DHT22;52411;52.716;6.696;2024-01-06T04:06:27;2.30;99.90
65692;DHT22;52411;52.716;6.696;2024-01-06T04:08:52;2.30;99.90
65692;DHT22;52411;52.716;6.696;2024-01-06T04:11:20;2.30;99.90
65692;DHT22;52411;52.716;6.696;2024-01-06T04:13:46;2.30;99.90
65692;DHT22;52411;52.716;6.696;2024-01-06T04:16:12;2.30;99.90
65692;DHT22;52411;52.716;6.696;2024-01-06T04:18:37;2.30;99.90
65692;DHT22;52411;52.716;6.696;2024-01-06T04:21:03;2.30;99.90
65692;DHT22;52411;52.716;6.696;2024-01-06T04:23:30;2.30;99.90
65692;DHT22;52411;52.716;6.696;2024-01-06T04:25:56;2.30;99.90
65692;DHT22;52411;52.716;6.696;2024-01-06T04:28:21;2.30;99.90
65692;DHT22;52411;52.716;6.696;2024-01-06T04:30:47;2.30;99.90
65692;DHT22;52411;52.716;6.696;2024-01-06T04:33:13;2.20;99.90
65692;DHT22;52411;52.716;6.696;2024-01-06T04:35:38;2.20;99.90
65692;DHT22;52411;52.716;6.696;2024-01-06T04:38:04;2.20;99.90
65692;DHT22;52411;52.716;6.696;2024-01-06T04:40:30;2.20;99.90
65692;DHT22;52411;52.716;6.696;2024-01-06T04:42:55;2.10;99.90
65692;DHT22;52411;52.716;6.696;2024-01-06T04:45:21;2.10;99.90
65692;DHT22;52411;52.716;6.696;2024-01-06T04:47:49;2.10;99.90
65692;DHT22;52411;52.716;6.696;2024-01-06T04:50:15;2.00;99.90
65692;DHT22;52411;52.716;6.696;2024-01-06T04:52:40;2.10;99.90
65692;DHT22;52411;52.716;6.696;2024-01-06T04:55:06;2.00;99.90
65692;DHT22;52411;52.716;6.696;2024-01-06T04:57:32;2.00;99.90
65692;DHT22;52411;52.716;6.696;2024-01-06T04:59:57;2.00;99.90
65692;DHT22;52411;52.716;6.696;2024-01-06T05:02:23;2.10;99.90
65692;DHT22;52411;52.716;6.696;2024-01-06T05:04:49;2.00;99.90
65692;DHT22;52411;52.716;6.696;2024-01-06T05:07:15;2.10;99.90
65692;DHT22;52411;52.716;6.696;2024-01-06T05:09:40;2.10;99.90
65692;DHT22;52411;52.716;6.696;2024-01-06T05:12:06;2.10;99.90
65692;DHT22;52411;52.716;6.696;2024-01-06T05:14:32;2.10;99.90
65692;DHT22;52411;52.716;6.696;2024-01-06T05:16:57;2.10;99.90
65692;DHT22;52411;52.716;6.696;2024-01-06T05:19:23;2.00;99.90
65692;DHT22;52411;52.716;6.696;2024-01-06T05:21:49;2.00;99.90
65692;DHT22;52411;52.716;6.696;2024-01-06T05:24:14;2.00;99.90
65692;DHT22;52411;52.716;6.696;2024-01-06T05:26:40;2.00;99.90
65692;DHT22;52411;52.716;6.696;2024-01-06T05:29:06;2.00;99.90
65692;DHT22;52411;52.716;6.696;2024-01-06T05:31:31;2.00;99.90
65692;DHT22;52411;52.716;6.696;2024-01-06T05:33:57;2.00;99.90
65692;DHT22;52411;52.716;6.696;2024-01-06T05:36:22;1.90;99.90
65692;DHT22;52411;52.716;6.696;2024-01-06T05:38:48;1.90;99.90
65692;DHT22;52411;52.716;6.696;2024-01-06T05:41:13;1.90;99.90
65692;DHT22;52411;52.716;6.696;2024-01-06T05:43:39;2.00;99.90
65692;DHT22;52411;52.716;6.696;2024-01-06T05:46:05;2.00;99.90
65692;DHT22;52411;52.716;6.696;2024-01-06T05:48:30;2.00;99.90
65692;DHT22;52411;52.716;6.696;2024-01-06T05:50:56;2.00;99.90
65692;DHT22;52411;52.716;6.696;2024-01-06T05:53:21;2.00;99.90
65692;DHT22;52411;52.716;6.696;2024-01-06T05:55:47;2.00;99.90
65692;DHT22;52411;52.716;6.696;2024-01-06T05:58:13;1.90;99.90
65692;DHT22;52411;52.716;6.696;2024-01-06T06:00:38;1.90;99.90
65692;DHT22;52411;52.716;6.696;2024-01-06T06:03:04;1.80;99.90
65692;DHT22;52411;52.716;6.696;2024-01-06T06:05:30;1.80;99.90
65692;DHT22;52411;52.716;6.696;2024-01-06T06:07:55;1.80;99.90
65692;DHT22;52411;52.716;6.696;2024-01-06T06:10:21;1.80;99.90
65692;DHT22;52411;52.716;6.696;2024-01-06T06:12:47;1.90;99.90
65692;DHT22;52411;52.716;6.696;2024-01-06T06:15:12;1.80;99.90
65692;DHT22;52411;52.716;6.696;2024-01-06T06:17:39;1.90;99.90
65692;DHT22;52411;52.716;6.696;2024-01-06T06:20:05;1.90;99.90
65692;DHT22;52411;52.716;6.696;2024-01-06T06:22:32;1.80;99.90
65692;DHT22;52411;52.716;6.696;2024-01-06T06:24:58;1.80;99.90
65692;DHT22;52411;52.716;6.696;2024-01-06T06:27:25;1.80;99.90
65692;DHT22;52411;52.716;6.696;2024-01-06T06:29:50;1.80;99.90
65692;DHT22;52411;52.716;6.696;2024-01-06T06:32:16;1.80;99.90
65692;DHT22;52411;52.716;6.696;2024-01-06T06:34:42;1.80;99.90
65692;DHT22;52411;52.716;6.696;2024-01-06T06:37:08;1.80;99.90
65692;DHT22;52411;52.716;6.696;2024-01-06T06:39:33;1.80;99.90
65692;DHT22;52411;52.716;6.696;2024-01-06T06:42:00;1.80;99.90
65692;DHT22;52411;52.716;6.696;2024-01-06T06:44:26;1.80;99.90
65692;DHT22;52411;52.716;6.696;2024-01-06T06:46:52;1.80;99.90
65692;DHT22;52411;52.716;6.696;2024-01-06T06:49:18;1.80;99.90
65692;DHT22;52411;52.716;6.696;2024-01-06T06:51:43;1.80;99.90
65692;DHT22;52411;52.716;6.696;2024-01-06T06:54:13;1.70;99.90
65692;DHT22;52411;52.716;6.696;2024-01-06T06:56:40;1.70;99.90
65692;DHT22;52411;52.716;6.696;2024-01-06T06:59:05;1.70;99.90
65692;DHT22;52411;52.716;6.696;2024-01-06T07:01:31;1.80;99.90
65692;DHT22;52411;52.716;6.696;2024-01-06T07:03:56;1.70;99.90
65692;DHT22;52411;52.716;6.696;2024-01-06T07:06:22;1.70;99.90
65692;DHT22;52411;52.716;6.696;2024-01-06T07:08:48;1.70;99.90
65692;DHT22;52411;52.716;6.696;2024-01-06T07:11:13;1.70;99.90
65692;DHT22;52411;52.716;6.696;2024-01-06T07:13:40;1.70;99.90
65692;DHT22;52411;52.716;6.696;2024-01-06T07:16:06;1.70;99.90
65692;DHT22;52411;52.716;6.696;2024-01-06T07:18:32;1.60;99.90
65692;DHT22;52411;52.716;6.696;2024-01-06T07:20:58;1.60;99.90
65692;DHT22;52411;52.716;6.696;2024-01-06T07:23:23;1.70;99.90
65692;DHT22;52411;52.716;6.696;2024-01-06T07:25:49;1.60;99.90
65692;DHT22;52411;52.716;6.696;2024-01-06T07:28:14;1.70;99.90
65692;DHT22;52411;52.716;6.696;2024-01-06T07:30:40;1.70;99.90
65692;DHT22;52411;52.716;6.696;2024-01-06T07:33:06;1.70;99.90
65692;DHT22;52411;52.716;6.696;2024-01-06T07:35:31;1.70;99.90
65692;DHT22;52411;52.716;6.696;2024-01-06T07:37:57;1.70;99.90
65692;DHT22;52411;52.716;6.696;2024-01-06T07:40:22;1.70;99.90
65692;DHT22;52411;52.716;6.696;2024-01-06T07:42:49;1.70;99.90
65692;DHT22;52411;52.716;6.696;2024-01-06T07:45:14;1.70;99.90
65692;DHT22;52411;52.716;6.696;2024-01-06T07:47:40;1.70;99.90
65692;DHT22;52411;52.716;6.696;2024-01-06T07:50:06;1.70;99.90
65692;DHT22;52411;52.716;6.696;2024-01-06T07:52:31;1.70;99.90
65692;DHT22;52411;52.716;6.696;2024-01-06T07:54:58;1.60;99.90
65692;DHT22;52411;52.716;6.696;2024-01-06T07:57:23;1.70;99.90
65692;DHT22;52411;52.716;6.696;2024-01-06T07:59:50;1.70;99.90
65692;DHT22;52411;52.716;6.696;2024-01-06T08:02:16;1.70;99.90
65692;DHT22;52411;52.716;6.696;2024-01-06T08:04:42;1.70;99.90
65692;DHT22;52411;52.716;6.696;2024-01-06T08:07:08;1.70;99.90
65692;DHT22;52411;52.716;6.696;2024-01-06T08:09:33;1.70;99.90
65692;DHT22;52411;52.716;6.696;2024-01-06T08:11:59;1.70;99.90
65692;DHT22;52411;52.716;6.696;2024-01-06T08:14:24;1.70;99.90
65692;DHT22;52411;52.716;6.696;2024-01-06T08:16:50;1.70;99.90
65692;DHT22;52411;52.716;6.696;2024-01-06T08:19:15;1.60;99.90
65692;DHT22;52411;52.716;6.696;2024-01-06T08:21:41;1.70;99.90
65692;DHT22;52411;52.716;6.696;2024-01-06T08:24:07;1.70;99.90
65692;DHT22;52411;52.716;6.696;2024-01-06T08:26:33;1.70;99.90
65692;DHT22;52411;52.716;6.696;2024-01-06T08:28:59;1.70;99.90
65692;DHT22;52411;52.716;6.696;2024-01-06T08:31:24;1.70;99.90
65692;DHT22;52411;52.716;6.696;2024-01-06T08:33:50;1.70;99.90
65692;DHT22;52411;52.716;6.696;2024-01-06T08:36:15;1.70;99.90
65692;DHT22;52411;52.716;6.696;2024-01-06T08:38:41;1.60;99.90
65692;DHT22;52411;52.716;6.696;2024-01-06T08:41:07;1.60;99.90
65692;DHT22;52411;52.716;6.696;2024-01-06T08:43:32;1.70;99.90
65692;DHT22;52411;52.716;6.696;2024-01-06T08:45:58;1.70;99.90
65692;DHT22;52411;52.716;6.696;2024-01-06T08:48:24;1.70;99.90
65692;DHT22;52411;52.716;6.696;2024-01-06T08:50:50;1.70;99.90
65692;DHT22;52411;52.716;6.696;2024-01-06T08:53:16;1.70;99.90
65692;DHT22;52411;52.716;6.696;2024-01-06T08:55:42;1.60;99.90
65692;DHT22;52411;52.716;6.696;2024-01-06T08:58:07;1.70;99.90
65692;DHT22;52411;52.716;6.696;2024-01-06T09:00:33;1.70;99.90
65692;DHT22;52411;52.716;6.696;2024-01-06T09:02:58;1.70;99.90
65692;DHT22;52411;52.716;6.696;2024-01-06T09:05:25;1.70;99.90
65692;DHT22;52411;52.716;6.696;2024-01-06T09:07:50;1.70;99.90
65692;DHT22;52411;52.716;6.696;2024-01-06T09:10:19;1.70;99.90
65692;DHT22;52411;52.716;6.696;2024-01-06T09:12:45;1.80;99.90
65692;DHT22;52411;52.716;6.696;2024-01-06T09:15:10;1.80;99.90
65692;DHT22;52411;52.716;6.696;2024-01-06T09:17:36;1.80;99.90
65692;DHT22;52411;52.716;6.696;2024-01-06T09:20:02;1.70;99.90
65692;DHT22;52411;52.716;6.696;2024-01-06T09:22:28;1.80;99.90
65692;DHT22;52411;52.716;6.696;2024-01-06T09:24:54;1.80;99.90
65692;DHT22;52411;52.716;6.696;2024-01-06T09:27:20;1.80;99.90
65692;DHT22;52411;52.716;6.696;2024-01-06T09:29:45;1.80;99.90
65692;DHT22;52411;52.716;6.696;2024-01-06T09:32:11;1.80;99.90
65692;DHT22;52411;52.716;6.696;2024-01-06T09:34:38;1.80;99.90
65692;DHT22;52411;52.716;6.696;2024-01-06T09:37:04;1.80;99.90
65692;DHT22;52411;52.716;6.696;2024-01-06T09:39:29;1.80;99.90
65692;DHT22;52411;52.716;6.696;2024-01-06T09:41:57;1.80;99.90
65692;DHT22;52411;52.716;6.696;2024-01-06T09:44:22;1.90;99.90
65692;DHT22;52411;52.716;6.696;2024-01-06T09:46:49;1.90;99.90
65692;DHT22;52411;52.716;6.696;2024-01-06T09:49:16;1.90;99.90
65692;DHT22;52411;52.716;6.696;2024-01-06T09:51:44;1.90;99.90
65692;DHT22;52411;52.716;6.696;2024-01-06T09:54:16;1.90;99.90
65692;DHT22;52411;52.716;6.696;2024-01-06T09:56:45;1.90;99.90
65692;DHT22;52411;52.716;6.696;2024-01-06T09:59:10;1.90;99.90
65692;DHT22;52411;52.716;6.696;2024-01-06T10:01:36;1.90;99.90
65692;DHT22;52411;52.716;6.696;2024-01-06T10:04:01;2.00;99.90
65692;DHT22;52411;52.716;6.696;2024-01-06T10:06:28;2.00;99.90
65692;DHT22;52411;52.716;6.696;2024-01-06T10:08:54;2.00;99.90
65692;DHT22;52411;52.716;6.696;2024-01-06T10:11:20;2.10;99.90
65692;DHT22;52411;52.716;6.696;2024-01-06T10:13:49;2.00;99.90
65692;DHT22;52411;52.716;6.696;2024-01-06T10:16:16;2.00;99.90
65692;DHT22;52411;52.716;6.696;2024-01-06T10:18:41;2.10;99.90
65692;DHT22;52411;52.716;6.696;2024-01-06T10:21:08;2.10;99.90
65692;DHT22;52411;52.716;6.696;2024-01-06T10:23:34;2.10;99.90
65692;DHT22;52411;52.716;6.696;2024-01-06T10:25:59;2.10;99.90
65692;DHT22;52411;52.716;6.696;2024-01-06T10:28:25;2.10;99.90
65692;DHT22;52411;52.716;6.696;2024-01-06T10:30:55;2.10;99.90
65692;DHT22;52411;52.716;6.696;2024-01-06T10:33:23;2.10;99.90
65692;DHT22;52411;52.716;6.696;2024-01-06T10:35:53;2.10;99.90
65692;DHT22;52411;52.716;6.696;2024-01-06T10:38:20;2.10;99.90
65692;DHT22;52411;52.716;6.696;2024-01-06T10:40:58;2.10;99.90
65692;DHT22;52411;52.716;6.696;2024-01-06T10:43:26;2.10;99.90
65692;DHT22;52411;52.716;6.696;2024-01-06T10:45:56;2.10;99.90
65692;DHT22;52411;52.716;6.696;2024-01-06T10:48:24;2.10;99.90
65692;DHT22;52411;52.716;6.696;2024-01-06T10:50:51;2.10;99.90
65692;DHT22;52411;52.716;6.696;2024-01-06T10:53:17;2.20;99.90
65692;DHT22;52411;52.716;6.696;2024-01-06T10:55:44;2.20;99.90
65692;DHT22;52411;52.716;6.696;2024-01-06T10:58:12;2.20;99.90
65692;DHT22;52411;52.716;6.696;2024-01-06T11:00:38;2.20;99.90
65692;DHT22;52411;52.716;6.696;2024-01-06T11:03:05;2.10;99.90
65692;DHT22;52411;52.716;6.696;2024-01-06T11:05:32;2.10;99.90
65692;DHT22;52411;52.716;6.696;2024-01-06T11:07:59;2.10;99.90
65692;DHT22;52411;52.716;6.696;2024-01-06T11:10:26;2.10;99.90
65692;DHT22;52411;52.716;6.696;2024-01-06T11:13:11;2.10;99.90
65692;DHT22;52411;52.716;6.696;2024-01-06T11:15:44;2.10;99.90
65692;DHT22;52411;52.716;6.696;2024-01-06T11:18:39;2.10;99.90
65692;DHT22;52411;52.716;6.696;2024-01-06T11:21:16;2.10;99.90
65692;DHT22;52411;52.716;6.696;2024-01-06T11:23:43;2.10;99.90
65692;DHT22;52411;52.716;6.696;2024-01-06T11:26:09;2.10;99.90
65692;DHT22;52411;52.716;6.696;2024-01-06T11:28:47;2.10;99.90
65692;DHT22;52411;52.716;6.696;2024-01-06T11:31:13;2.10;99.90
65692;DHT22;52411;52.716;6.696;2024-01-06T11:33:46;2.10;99.90
65692;DHT22;52411;52.716;6.696;2024-01-06T11:36:15;2.10;99.90
65692;DHT22;52411;52.716;6.696;2024-01-06T11:38:41;2.10;99.90
65692;DHT22;52411;52.716;6.696;2024-01-06T11:41:07;2.10;99.90
65692;DHT22;52411;52.716;6.696;2024-01-06T11:43:34;2.10;99.90
65692;DHT22;52411;52.716;6.696;2024-01-06T11:46:01;2.10;99.90
65692;DHT22;52411;52.716;6.696;2024-01-06T11:48:29;2.10;99.90
65692;DHT22;52411;52.716;6.696;2024-01-06T11:50:55;2.10;99.90
65692;DHT22;52411;52.716;6.696;2024-01-06T11:53:22;2.10;99.90
65692;DHT22;52411;52.716;6.696;2024-01-06T11:55:51;2.10;99.90
65692;DHT22;52411;52.716;6.696;2024-01-06T11:58:17;2.10;99.90
65692;DHT22;52411;52.716;6.696;2024-01-06T12:00:43;2.10;99.90
65692;DHT22;52411;52.716;6.696;2024-01-06T12:03:09;2.10;99.90
65692;DHT22;52411;52.716;6.696;2024-01-06T12:05:35;2.10;99.90
65692;DHT22;52411;52.716;6.696;2024-01-06T12:08:02;2.10;99.90
65692;DHT22;52411;52.716;6.696;2024-01-06T12:10:31;2.10;99.90
65692;DHT22;52411;52.716;6.696;2024-01-06T12:13:02;2.10;99.90
65692;DHT22;52411;52.716;6.696;2024-01-06T12:15:30;2.00;99.90
65692;DHT22;52411;52.716;6.696;2024-01-06T12:17:57;2.00;99.90
65692;DHT22;52411;52.716;6.696;2024-01-06T12:20:23;2.00;99.90
65692;DHT22;52411;52.716;6.696;2024-01-06T12:22:51;2.10;99.90
65692;DHT22;52411;52.716;6.696;2024-01-06T12:25:17;2.10;99.90
65692;DHT22;52411;52.716;6.696;2024-01-06T12:27:44;2.10;99.90
65692;DHT22;52411;52.716;6.696;2024-01-06T12:30:18;2.10;99.90
65692;DHT22;52411;52.716;6.696;2024-01-06T12:32:45;2.10;99.90
65692;DHT22;52411;52.716;6.696;2024-01-06T12:35:11;2.10;99.90
65692;DHT22;52411;52.716;6.696;2024-01-06T12:37:37;2.10;99.90
65692;DHT22;52411;52.716;6.696;2024-01-06T12:40:08;2.10;99.90
65692;DHT22;52411;52.716;6.696;2024-01-06T12:42:34;2.10;99.90
65692;DHT22;52411;52.716;6.696;2024-01-06T12:44:59;2.10;99.90
65692;DHT22;52411;52.716;6.696;2024-01-06T12:47:25;2.10;99.90
65692;DHT22;52411;52.716;6.696;2024-01-06T12:49:50;2.00;99.90
65692;DHT22;52411;52.716;6.696;2024-01-06T12:52:16;2.10;99.90
65692;DHT22;52411;52.716;6.696;2024-01-06T12:54:41;2.10;99.90
65692;DHT22;52411;52.716;6.696;2024-01-06T12:57:08;2.10;99.90
65692;DHT22;52411;52.716;6.696;2024-01-06T12:59:35;2.00;99.90
65692;DHT22;52411;52.716;6.696;2024-01-06T13:02:00;2.00;99.90
65692;DHT22;52411;52.716;6.696;2024-01-06T13:04:26;2.00;99.90
65692;DHT22;52411;52.716;6.696;2024-01-06T13:06:52;2.00;99.90
65692;DHT22;52411;52.716;6.696;2024-01-06T13:09:18;2.00;99.90
65692;DHT22;52411;52.716;6.696;2024-01-06T13:11:43;2.00;99.90
65692;DHT22;52411;52.716;6.696;2024-01-06T13:14:12;2.00;99.90
65692;DHT22;52411;52.716;6.696;2024-01-06T13:16:38;2.00;99.90
65692;DHT22;52411;52.716;6.696;2024-01-06T13:19:03;2.10;99.90
65692;DHT22;52411;52.716;6.696;2024-01-06T13:21:30;2.10;99.90
65692;DHT22;52411;52.716;6.696;2024-01-06T13:23:55;2.00;99.90
65692;DHT22;52411;52.716;6.696;2024-01-06T13:26:26;2.00;99.90
65692;DHT22;52411;52.716;6.696;2024-01-06T13:28:53;2.10;99.90
65692;DHT22;52411;52.716;6.696;2024-01-06T13:31:18;2.10;99.90
65692;DHT22;52411;52.716;6.696;2024-01-06T13:33:44;2.10;99.90
65692;DHT22;52411;52.716;6.696;2024-01-06T13:36:10;2.10;99.90
65692;DHT22;52411;52.716;6.696;2024-01-06T13:38:35;2.10;99.90
65692;DHT22;52411;52.716;6.696;2024-01-06T13:41:01;2.10;99.90
65692;DHT22;52411;52.716;6.696;2024-01-06T13:43:26;2.10;99.90
65692;DHT22;52411;52.716;6.696;2024-01-06T13:45:52;2.00;99.90
65692;DHT22;52411;52.716;6.696;2024-01-06T13:48:18;2.10;99.90
65692;DHT22;52411;52.716;6.696;2024-01-06T13:50:44;2.00;99.90
65692;DHT22;52411;52.716;6.696;2024-01-06T13:53:10;2.00;99.90
65692;DHT22;52411;52.716;6.696;2024-01-06T13:55:36;2.00;99.90
65692;DHT22;52411;52.716;6.696;2024-01-06T13:58:01;2.10;99.90
65692;DHT22;52411;52.716;6.696;2024-01-06T14:00:27;2.00;99.90
65692;DHT22;52411;52.716;6.696;2024-01-06T14:02:52;2.00;99.90
65692;DHT22;52411;52.716;6.696;2024-01-06T14:05:19;2.00;99.90
65692;DHT22;52411;52.716;6.696;2024-01-06T14:07:45;2.00;99.90
65692;DHT22;52411;52.716;6.696;2024-01-06T14:10:14;2.00;99.90
65692;DHT22;52411;52.716;6.696;2024-01-06T14:12:40;1.90;99.90
65692;DHT22;52411;52.716;6.696;2024-01-06T14:15:07;1.90;99.90
65692;DHT22;52411;52.716;6.696;2024-01-06T14:17:33;1.90;99.90
65692;DHT22;52411;52.716;6.696;2024-01-06T14:19:59;2.00;99.90
65692;DHT22;52411;52.716;6.696;2024-01-06T14:22:26;2.00;99.90
65692;DHT22;52411;52.716;6.696;2024-01-06T14:24:52;2.00;99.90
65692;DHT22;52411;52.716;6.696;2024-01-06T14:27:17;2.00;99.90
65692;DHT22;52411;52.716;6.696;2024-01-06T14:29:43;2.00;99.90
65692;DHT22;52411;52.716;6.696;2024-01-06T14:32:09;2.00;99.90
65692;DHT22;52411;52.716;6.696;2024-01-06T14:34:34;1.90;99.90
65692;DHT22;52411;52.716;6.696;2024-01-06T14:37:00;1.90;99.90
65692;DHT22;52411;52.716;6.696;2024-01-06T14:39:26;1.90;99.90
65692;DHT22;52411;52.716;6.696;2024-01-06T14:41:51;1.90;99.90
65692;DHT22;52411;52.716;6.696;2024-01-06T14:44:17;1.80;99.90
65692;DHT22;52411;52.716;6.696;2024-01-06T14:46:48;1.90;99.90
65692;DHT22;52411;52.716;6.696;2024-01-06T14:49:16;1.80;99.90
65692;DHT22;52411;52.716;6.696;2024-01-06T14:51:41;1.80;99.90
65692;DHT22;52411;52.716;6.696;2024-01-06T14:54:07;1.80;99.90
65692;DHT22;52411;52.716;6.696;2024-01-06T14:56:37;1.80;99.90
65692;DHT22;52411;52.716;6.696;2024-01-06T14:59:03;1.90;99.90
65692;DHT22;52411;52.716;6.696;2024-01-06T15:01:29;1.80;99.90
65692;DHT22;52411;52.716;6.696;2024-01-06T15:03:54;1.80;99.90
65692;DHT22;52411;52.716;6.696;2024-01-06T15:06:20;1.80;99.90
65692;DHT22;52411;52.716;6.696;2024-01-06T15:08:45;1.80;99.90
65692;DHT22;52411;52.716;6.696;2024-01-06T15:11:11;1.80;99.90
65692;DHT22;52411;52.716;6.696;2024-01-06T15:13:36;1.80;99.90
65692;DHT22;52411;52.716;6.696;2024-01-06T15:16:02;1.80;99.90
65692;DHT22;52411;52.716;6.696;2024-01-06T15:18:28;1.80;99.90
65692;DHT22;52411;52.716;6.696;2024-01-06T15:20:54;1.80;99.90
65692;DHT22;52411;52.716;6.696;2024-01-06T15:23:19;1.80;99.90
65692;DHT22;52411;52.716;6.696;2024-01-06T15:25:45;1.70;99.90
65692;DHT22;52411;52.716;6.696;2024-01-06T15:28:12;1.80;99.90
65692;DHT22;52411;52.716;6.696;2024-01-06T15:30:38;1.80;99.90
65692;DHT22;52411;52.716;6.696;2024-01-06T15:33:04;1.80;99.90
65692;DHT22;52411;52.716;6.696;2024-01-06T15:35:30;1.80;99.90
65692;DHT22;52411;52.716;6.696;2024-01-06T15:37:55;1.70;99.90